Time;durP1;ratioP1;P1;durP2;ratioP2;P2;SDS_P1;SDS_P2;PMS_P1;PMS_P2;Temp;Humidity;BMP_temperature;BMP_pressure;BME280_temperature;BME280_humidity;BME280_pressure;Samples;Min_cycle;Max_cycle;Signal;HPM_P1;HPM_P2
2021/12/12 00:01:14;;;;;;;16.42;11.22;;;;;;;8.09;97.10;99684.64;1721629;82;21071;-69
2021/12/12 00:03:47;;;;;;;19.35;12.98;;;;;;;8.11;96.76;99692.38;1721731;83;20987;-69
2021/12/12 00:06:22;;;;;;;17.40;11.83;;;;;;;8.09;96.48;99704.52;1721039;83;20975;-69
2021/12/12 00:08:57;;;;;;;18.70;12.23;;;;;;;8.07;96.56;99702.41;1719186;82;21170;-70
2021/12/12 00:11:28;;;;;;;17.55;12.53;;;;;;;8.06;96.61;99701.56;1721386;83;21023;-70
2021/12/12 00:14:09;;;;;;;16.80;11.33;;;;;;;8.02;96.23;99699.94;1721808;83;21055;-70
2021/12/12 00:16:36;;;;;;;17.42;12.85;;;;;;;7.93;96.29;99704.95;1721578;83;21031;-70
2021/12/12 00:19:03;;;;;;;21.20;13.43;;;;;;;7.84;96.73;99702.59;1721434;83;21171;-69
2021/12/12 00:21:32;;;;;;;17.02;13.00;;;;;;;7.79;96.92;99705.77;1721680;83;21178;-69
2021/12/12 00:23:59;;;;;;;15.78;12.03;;;;;;;7.72;97.02;99704.66;1720943;83;21460;-69
2021/12/12 00:26:25;;;;;;;18.20;11.75;;;;;;;7.63;97.38;99707.03;1721898;83;21046;-69
2021/12/12 00:28:51;;;;;;;18.52;13.05;;;;;;;7.55;97.72;99717.59;1721734;83;21088;-69
2021/12/12 00:31:21;;;;;;;16.50;12.93;;;;;;;7.50;98.17;99719.44;1721559;83;20999;-69
2021/12/12 00:33:49;;;;;;;19.90;14.15;;;;;;;7.49;98.60;99724.21;1721708;83;22140;-69
2021/12/12 00:36:17;;;;;;;18.20;14.38;;;;;;;7.49;98.74;99710.42;1721369;83;21018;-69
2021/12/12 00:38:57;;;;;;;16.57;13.05;;;;;;;7.45;98.96;99708.34;1721712;83;21097;-69
2021/12/12 00:41:29;;;;;;;16.15;12.28;;;;;;;7.46;99.32;99710.05;1721202;82;21043;-69
2021/12/12 00:43:56;;;;;;;17.45;13.98;;;;;;;7.50;99.56;99722.03;1721533;83;21051;-69
2021/12/12 00:46:23;;;;;;;16.23;13.48;;;;;;;7.56;99.47;99708.95;1721484;83;21549;-69
2021/12/12 00:48:49;;;;;;;17.87;13.60;;;;;;;7.59;99.29;99708.02;1721607;83;20987;-70
2021/12/12 00:51:19;;;;;;;16.60;13.48;;;;;;;7.59;99.43;99711.43;1721383;83;21090;-70
2021/12/12 00:53:46;;;;;;;16.35;13.55;;;;;;;7.66;99.45;99716.46;1721776;83;21575;-69
2021/12/12 00:56:13;;;;;;;16.57;13.55;;;;;;;7.72;99.17;99722.78;1724189;83;21082;-69
2021/12/12 00:58:40;;;;;;;18.42;13.83;;;;;;;7.74;99.01;99719.27;1731289;81;21168;-68
2021/12/12 01:01:17;;;;;;;17.67;14.50;;;;;;;7.75;99.06;99713.20;1731289;83;20967;-68
2021/12/12 01:03:59;;;;;;;15.43;12.63;;;;;;;7.80;99.03;99719.53;1731328;83;21078;-68
2021/12/12 01:06:25;;;;;;;16.75;13.10;;;;;;;7.84;98.65;99725.89;1731356;83;20976;-68
2021/12/12 01:08:55;;;;;;;12.95;11.50;;;;;;;7.85;98.39;99725.00;1731332;83;20936;-68
2021/12/12 01:11:27;;;;;;;13.62;12.00;;;;;;;7.85;98.24;99724.16;1731461;83;21830;-68
2021/12/12 01:13:54;;;;;;;14.10;11.97;;;;;;;7.86;98.24;99725.41;1731637;83;20972;-68
2021/12/12 01:16:29;;;;;;;16.00;13.83;;;;;;;7.86;97.99;99720.67;1731373;83;21706;-68
2021/12/12 01:19:01;;;;;;;14.18;12.70;;;;;;;7.86;97.94;99718.94;1730364;83;21024;-68
2021/12/12 01:21:33;;;;;;;11.12;9.90;;;;;;;7.89;97.69;99712.38;1730960;83;20924;-68
2021/12/12 01:24:07;;;;;;;11.88;10.68;;;;;;;7.92;97.34;99711.45;1731371;83;21140;-69
2021/12/12 01:26:34;;;;;;;12.50;10.88;;;;;;;7.91;97.35;99714.94;1731218;83;21019;-69
2021/12/12 01:29:02;;;;;;;11.60;10.32;;;;;;;7.92;97.23;99717.93;1731309;83;21379;-69
2021/12/12 01:31:32;;;;;;;12.50;11.30;;;;;;;7.92;97.18;99724.41;1731589;83;20944;-69
2021/12/12 01:34:12;;;;;;;15.13;12.90;;;;;;;7.92;97.08;99723.96;1731579;83;21380;-69
2021/12/12 01:37:06;;;;;;;13.48;11.97;;;;;;;7.91;97.11;99722.70;1731599;83;21461;-69
2021/12/12 01:39:23;;;;;;;13.95;11.75;;;;;;;7.96;97.14;99719.55;1728344;83;20964;-69
2021/12/12 01:41:58;;;;;;;12.55;11.22;;;;;;;8.00;96.92;99721.14;1731640;83;20899;-69
2021/12/12 01:44:36;;;;;;;14.68;11.50;;;;;;;8.05;96.79;99721.03;1731595;83;20987;-69
2021/12/12 01:47:10;;;;;;;12.53;10.68;;;;;;;8.05;96.62;99719.29;1731362;83;21614;-69
2021/12/12 01:49:40;;;;;;;11.68;9.43;;;;;;;8.03;96.43;99716.33;1731497;83;21120;-69
2021/12/12 01:52:08;;;;;;;11.18;10.08;;;;;;;8.01;96.49;99717.66;1731226;83;20972;-69
2021/12/12 01:54:44;;;;;;;12.88;11.08;;;;;;;7.99;96.57;99718.19;1731587;83;20988;-69
2021/12/12 01:57:07;;;;;;;;;;;;;;;7.93;96.80;99713.16;1728083;83;20984;-69
2021/12/12 01:59:35;;;;;;;12.93;10.72;;;;;;;7.92;96.96;99716.20;1721448;82;20457;-69
2021/12/12 02:02:13;;;;;;;13.50;9.70;;;;;;;7.87;97.11;99713.31;1721418;83;21186;-69
2021/12/12 02:04:44;;;;;;;13.30;9.78;;;;;;;7.83;97.27;99719.02;1716149;82;20929;-70
2021/12/12 02:07:12;;;;;;;14.23;11.38;;;;;;;7.79;97.65;99714.83;1721644;83;21453;-69
2021/12/12 02:09:39;;;;;;;15.18;11.88;;;;;;;7.80;98.04;99710.02;1721601;83;21424;-69
2021/12/12 02:12:07;;;;;;;17.37;11.30;;;;;;;7.81;98.22;99706.55;1721615;83;21023;-69
2021/12/12 02:14:37;;;;;;;17.10;11.43;;;;;;;7.84;98.41;99715.53;1721587;83;21124;-69
2021/12/12 02:17:15;;;;;;;19.75;11.65;;;;;;;7.84;98.38;99716.83;1721672;83;21472;-69
2021/12/12 02:19:55;;;;;;;17.23;12.00;;;;;;;7.84;98.68;99710.36;1721511;83;20964;-69
2021/12/12 02:35:46;;;;;;;19.02;11.15;;;;;;;7.91;99.69;99709.75;1721744;83;21064;-69
2021/12/12 02:38:19;;;;;;;23.25;11.50;;;;;;;7.89;100.00;99716.72;1721907;83;20920;-69
2021/12/12 02:40:51;;;;;;;15.72;11.10;;;;;;;7.92;100.00;99714.90;1722022;82;21161;-69
2021/12/12 02:43:19;;;;;;;18.70;10.68;;;;;;;7.92;100.00;99710.16;1721815;83;21004;-69
2021/12/12 02:45:46;;;;;;;13.03;9.85;;;;;;;7.95;100.00;99717.86;1721555;83;21023;-69
2021/12/12 02:48:18;;;;;;;26.57;10.55;;;;;;;7.94;100.00;99713.12;1721807;83;21019;-69
2021/12/12 02:50:45;;;;;;;17.35;10.58;;;;;;;7.96;100.00;99715.67;1721064;83;20945;-69
2021/12/12 02:53:19;;;;;;;14.93;10.40;;;;;;;7.95;100.00;99714.82;1721868;83;21057;-69
2021/12/12 02:55:50;;;;;;;14.28;9.78;;;;;;;7.95;100.00;99714.82;1721281;83;20976;-69
2021/12/12 02:58:20;;;;;;;15.72;9.90;;;;;;;7.95;100.00;99710.94;1729949;83;20996;-69
2021/12/12 03:01:13;;;;;;;12.33;10.25;;;;;;;7.93;100.00;99709.27;1731411;81;20983;-69
2021/12/12 03:03:42;;;;;;;16.48;10.10;;;;;;;7.91;100.00;99704.58;1731537;83;20952;-69
2021/12/12 03:06:12;;;;;;;11.38;9.33;;;;;;;7.89;100.00;99703.77;1731515;83;21948;-70
2021/12/12 03:08:40;;;;;;;12.10;8.93;;;;;;;7.89;100.00;99705.06;1731339;83;21449;-69
2021/12/12 03:11:08;;;;;;;16.45;9.65;;;;;;;7.87;100.00;99706.84;1731412;83;20983;-69
2021/12/12 03:13:34;;;;;;;21.00;9.65;;;;;;;7.89;100.00;99714.97;1731446;83;20987;-70
2021/12/12 03:16:01;;;;;;;12.78;9.63;;;;;;;7.93;100.00;99715.30;1731442;83;21431;-69
2021/12/12 03:18:40;;;;;;;12.78;8.50;;;;;;;7.93;100.00;99720.48;1731361;83;21576;-69
2021/12/12 03:21:15;;;;;;;12.53;9.15;;;;;;;7.88;100.00;99724.08;1731339;83;20975;-70
2021/12/12 03:23:41;;;;;;;15.75;8.63;;;;;;;7.86;100.00;99721.52;1731267;83;21432;-69
2021/12/12 03:26:10;;;;;;;18.02;9.90;;;;;;;7.88;100.00;99722.34;1731479;83;20984;-70
2021/12/12 03:28:41;;;;;;;18.50;10.30;;;;;;;7.89;100.00;99725.78;1731425;83;21459;-69
2021/12/12 03:31:12;;;;;;;13.15;9.13;;;;;;;7.88;100.00;99718.45;1731443;83;21082;-70
2021/12/12 03:33:39;;;;;;;12.05;9.10;;;;;;;7.88;100.00;99715.02;1731238;83;20979;-70
2021/12/12 03:36:08;;;;;;;9.95;8.30;;;;;;;7.93;100.00;99721.78;1731712;83;21512;-70
2021/12/12 03:38:36;;;;;;;18.32;10.43;;;;;;;7.93;100.00;99716.59;1731368;83;20991;-70
2021/12/12 03:41:07;;;;;;;12.03;9.48;;;;;;;7.92;100.00;99712.31;1731409;83;21514;-70
2021/12/12 03:43:34;;;;;;;11.78;9.00;;;;;;;7.95;100.00;99707.05;1731398;83;21130;-70
2021/12/12 03:46:01;;;;;;;10.55;8.73;;;;;;;8.01;100.00;99711.19;1731564;83;21393;-70
2021/12/12 03:48:31;;;;;;;12.63;9.03;;;;;;;8.03;100.00;99716.33;1731543;83;21011;-70
2021/12/12 03:51:01;;;;;;;12.47;9.63;;;;;;;7.99;100.00;99716.03;1731672;83;21015;-70
2021/12/12 03:53:28;;;;;;;11.38;9.18;;;;;;;7.99;100.00;99719.48;1731446;83;21463;-70
2021/12/12 03:55:55;;;;;;;11.20;8.55;;;;;;;7.99;100.00;99714.74;1731616;83;21088;-70
2021/12/12 03:58:22;;;;;;;12.78;9.13;;;;;;;7.97;100.00;99717.38;1731135;83;20936;-70
2021/12/12 04:01:00;;;;;;;12.88;9.18;;;;;;;7.97;100.00;99718.66;1731322;81;21546;-70
2021/12/12 04:03:28;;;;;;;12.93;10.35;;;;;;;7.99;100.00;99721.22;1731461;83;20956;-70
2021/12/12 04:05:59;;;;;;;12.05;9.68;;;;;;;8.02;100.00;99721.11;1731423;83;21043;-70
2021/12/12 04:08:28;;;;;;;12.50;9.40;;;;;;;8.03;100.00;99726.25;1731387;83;21141;-70
2021/12/12 04:10:54;;;;;;;11.78;8.13;;;;;;;8.03;100.00;99726.69;1731288;83;21019;-70
2021/12/12 04:13:22;;;;;;;12.63;9.30;;;;;;;8.01;100.00;99724.14;1731355;83;21495;-70
2021/12/12 04:15:51;;;;;;;9.05;8.03;;;;;;;8.00;100.00;99719.00;1731420;83;20952;-70
2021/12/12 04:18:24;;;;;;;10.53;8.60;;;;;;;8.00;100.00;99711.23;1731415;83;21014;-70
2021/12/12 04:20:50;;;;;;;9.53;7.37;;;;;;;7.94;100.00;99707.94;1730783;83;21141;-69
2021/12/12 04:23:19;;;;;;;9.90;6.92;;;;;;;7.93;100.00;99710.57;1731302;83;20951;-69
2021/12/12 04:25:46;;;;;;;8.75;6.60;;;;;;;7.94;100.00;99713.12;1731341;83;20972;-69
2021/12/12 04:28:13;;;;;;;7.75;6.95;;;;;;;7.90;100.00;99716.67;1731392;83;21073;-69
2021/12/12 04:30:40;;;;;;;7.12;6.22;;;;;;;7.86;100.00;99720.67;1731419;83;20984;-69
2021/12/12 04:33:06;;;;;;;7.42;5.83;;;;;;;7.84;100.00;99722.01;1731636;83;20989;-68
2021/12/12 04:35:34;;;;;;;7.85;5.55;;;;;;;7.82;100.00;99729.41;1731259;83;20927;-69
2021/12/12 04:38:02;;;;;;;6.53;5.47;;;;;;;7.79;100.00;99738.58;1731566;83;20920;-69
2021/12/12 04:40:32;;;;;;;7.95;6.00;;;;;;;7.78;100.00;99731.70;1731497;83;20991;-69
2021/12/12 04:42:59;;;;;;;7.78;5.97;;;;;;;7.75;100.00;99731.33;1731379;83;20999;-70
2021/12/12 04:46:07;;;;;;;6.58;5.75;;;;;;;7.73;100.00;99730.95;1731439;83;21455;-69
2021/12/12 04:51:56;;;;;;;7.25;5.90;;;;;;;7.74;100.00;99723.59;1731468;83;21023;-69
2021/12/12 04:54:39;;;;;;;6.40;5.72;;;;;;;7.75;100.00;99728.73;1731625;83;20956;-70
2021/12/12 04:57:13;;;;;;;7.05;6.03;;;;;;;7.74;100.00;99733.95;1731416;83;21452;-69
2021/12/12 04:59:46;;;;;;;7.62;5.87;;;;;;;7.73;100.00;99748.64;1731476;81;22130;-68
2021/12/12 05:02:43;;;;;;;8.43;6.92;;;;;;;7.72;100.00;99743.05;1731386;83;20936;-68
2021/12/12 05:05:20;;;;;;;12.03;7.50;;;;;;;7.72;100.00;99746.94;1731339;83;20922;-69
2021/12/12 05:07:52;;;;;;;9.58;7.62;;;;;;;7.73;100.00;99742.16;1732215;83;21023;-68
2021/12/12 05:10:36;;;;;;;9.87;6.50;;;;;;;7.69;100.00;99737.95;1731814;83;20984;-68
2021/12/12 05:13:27;;;;;;;9.63;6.42;;;;;;;7.70;100.00;99739.65;1731335;83;21534;-68
2021/12/12 05:16:00;;;;;;;8.73;6.00;;;;;;;7.74;100.00;99734.80;1731134;83;21538;-68
2021/12/12 05:18:30;;;;;;;7.72;6.42;;;;;;;7.76;100.00;99740.80;1731490;83;21023;-68
2021/12/12 05:21:01;;;;;;;10.00;6.17;;;;;;;7.75;100.00;99742.98;1731303;83;21023;-68
2021/12/12 05:23:30;;;;;;;8.13;5.10;;;;;;;7.72;100.00;99751.27;1731736;83;20935;-69
2021/12/12 05:26:06;;;;;;;6.85;4.95;;;;;;;7.68;100.00;99750.92;1731327;83;21516;-69
2021/12/12 05:28:42;;;;;;;9.23;6.67;;;;;;;7.65;100.00;99752.30;1731327;83;21027;-69
2021/12/12 05:31:10;;;;;;;10.40;8.20;;;;;;;7.59;100.00;99755.44;1731350;83;20976;-69
2021/12/12 05:33:37;;;;;;;14.05;9.43;;;;;;;7.61;100.00;99756.69;1731287;83;20980;-70
2021/12/12 05:36:09;;;;;;;11.93;10.43;;;;;;;7.62;100.00;99764.87;1731297;83;21551;-70
2021/12/12 05:38:35;;;;;;;12.80;9.65;;;;;;;7.63;100.00;99766.56;1703733;83;21800;-69
2021/12/12 05:41:01;;;;;;;7.72;6.90;;;;;;;7.66;100.00;99766.50;1731659;83;20976;-69
2021/12/12 05:43:29;;;;;;;9.05;6.83;;;;;;;7.69;100.00;99757.36;1731377;83;21437;-69
2021/12/12 05:45:55;;;;;;;7.22;6.25;;;;;;;7.66;100.00;99764.35;1731630;83;20979;-69
2021/12/12 05:48:22;;;;;;;9.30;7.35;;;;;;;7.63;100.00;99774.78;1731353;83;21460;-69
2021/12/12 05:50:51;;;;;;;11.93;9.10;;;;;;;7.64;100.00;99776.48;1731644;83;21115;-69
2021/12/12 05:53:17;;;;;;;10.05;7.00;;;;;;;7.65;100.00;99775.15;1731154;83;20992;-69
2021/12/12 05:55:45;;;;;;;13.13;8.63;;;;;;;7.67;100.00;99782.44;1731687;83;21562;-70
2021/12/12 05:58:13;;;;;;;9.45;6.85;;;;;;;7.64;100.00;99789.42;1727018;83;21004;-70
2021/12/12 06:00:51;;;;;;;10.10;7.85;;;;;;;7.65;100.00;99785.95;1721455;82;20980;-69
2021/12/12 06:03:21;;;;;;;10.18;7.28;;;;;;;7.65;100.00;99792.42;1721554;83;21120;-70
2021/12/12 06:05:50;;;;;;;12.50;8.88;;;;;;;7.65;100.00;99789.39;1721808;83;21103;-70
2021/12/12 06:08:16;;;;;;;11.15;8.35;;;;;;;7.66;100.00;99788.94;1721500;83;20984;-70
2021/12/12 06:10:43;;;;;;;8.30;7.05;;;;;;;7.66;100.00;99785.06;1721595;83;20961;-70
2021/12/12 06:13:12;;;;;;;8.03;6.22;;;;;;;7.67;100.00;99785.47;1721728;83;20933;-70
2021/12/12 06:15:39;;;;;;;7.12;5.50;;;;;;;7.67;100.00;99794.09;1721786;83;21098;-70
2021/12/12 06:18:06;;;;;;;9.18;7.12;;;;;;;7.61;100.00;99786.46;1721329;83;21461;-70
2021/12/12 06:20:34;;;;;;;9.70;7.12;;;;;;;7.54;100.00;99794.84;1697357;83;21000;-70
2021/12/12 06:23:01;;;;;;;7.62;6.15;;;;;;;7.54;100.00;99797.43;1721533;83;20992;-70
2021/12/12 06:25:27;;;;;;;9.75;6.33;;;;;;;7.52;100.00;99788.00;1721535;83;20976;-70
2021/12/12 06:27:53;;;;;;;9.15;7.00;;;;;;;7.52;100.00;99799.64;1721462;83;21519;-70
2021/12/12 06:30:22;;;;;;;10.00;6.50;;;;;;;7.52;100.00;99806.11;1721438;83;20976;-70
2021/12/12 06:32:49;;;;;;;10.38;7.70;;;;;;;7.48;100.00;99807.06;1721387;83;20936;-70
2021/12/12 06:35:16;;;;;;;7.72;6.92;;;;;;;7.40;100.00;99814.14;1721496;83;21035;-70
2021/12/12 06:37:42;;;;;;;7.35;6.53;;;;;;;7.37;100.00;99814.24;1721578;83;20925;-70
2021/12/12 06:40:12;;;;;;;6.85;6.12;;;;;;;7.37;100.00;99818.97;1721628;83;21555;-70
2021/12/12 06:42:38;;;;;;;9.45;8.20;;;;;;;7.32;100.00;99813.05;1721439;83;21416;-70
2021/12/12 06:45:07;;;;;;;10.80;9.08;;;;;;;7.28;100.00;99826.93;1721642;83;21032;-71
2021/12/12 06:47:33;;;;;;;8.58;6.83;;;;;;;7.23;100.00;99828.76;1697139;83;21031;-70
2021/12/12 06:50:00;;;;;;;7.45;5.83;;;;;;;7.21;100.00;99833.11;1721581;83;20933;-70
2021/12/12 06:52:26;;;;;;;6.90;6.15;;;;;;;7.13;100.00;99837.62;1721597;83;21749;-70
2021/12/12 06:54:53;;;;;;;6.35;5.25;;;;;;;7.04;100.00;99833.92;1721485;83;20932;-70
2021/12/12 06:57:19;;;;;;;10.38;5.85;;;;;;;6.96;100.00;99842.30;1721565;83;21453;-70
2021/12/12 06:59:48;;;;;;;10.28;6.17;;;;;;;6.86;100.00;99845.51;1730713;81;20996;-70
2021/12/12 07:02:15;;;;;;;10.13;7.08;;;;;;;6.81;100.00;99853.78;1731426;83;20945;-70
2021/12/12 07:04:43;;;;;;;10.18;6.60;;;;;;;6.78;100.00;99853.88;1731375;83;21479;-70
2021/12/12 07:07:11;;;;;;;8.20;6.40;;;;;;;6.77;100.00;99855.61;1731426;83;20952;-70
2021/12/12 07:09:38;;;;;;;7.05;6.03;;;;;;;6.76;100.00;99864.69;1731427;83;20960;-70
2021/12/12 07:12:09;;;;;;;13.55;9.50;;;;;;;6.71;100.00;99868.65;1731381;83;21491;-70
2021/12/12 07:14:37;;;;;;;9.18;6.83;;;;;;;6.73;100.00;99872.06;1731680;83;21055;-69
2021/12/12 07:17:05;;;;;;;7.35;6.50;;;;;;;6.78;100.00;99862.48;1731382;83;20955;-70
2021/12/12 07:19:32;;;;;;;9.45;7.30;;;;;;;6.75;100.00;99875.47;1731296;83;20970;-70
2021/12/12 07:22:02;;;;;;;7.40;6.30;;;;;;;6.72;100.00;99868.20;1731401;83;20948;-70
2021/12/12 07:24:28;;;;;;;7.92;6.45;;;;;;;6.72;100.00;99874.67;1731512;83;21373;-70
2021/12/12 07:26:55;;;;;;;9.93;7.67;;;;;;;6.70;100.00;99873.41;1731353;83;21001;-70
2021/12/12 07:29:22;;;;;;;9.98;7.75;;;;;;;6.71;100.00;99872.97;1731471;83;21127;-70
2021/12/12 07:31:49;;;;;;;9.98;8.93;;;;;;;6.74;100.00;99878.08;1731309;83;20940;-70
2021/12/12 07:34:16;;;;;;;8.75;7.15;;;;;;;6.76;100.00;99877.61;1731408;83;20984;-70
2021/12/12 07:36:53;;;;;;;7.67;6.28;;;;;;;6.75;100.00;99879.34;1731364;83;21483;-70
2021/12/12 07:39:20;;;;;;;8.98;7.80;;;;;;;6.76;100.00;99884.08;1731699;83;21448;-69
2021/12/12 07:41:47;;;;;;;9.95;8.75;;;;;;;6.77;100.00;99885.78;1731345;83;21130;-70
2021/12/12 07:44:15;;;;;;;7.47;6.70;;;;;;;6.77;100.00;99892.24;1731640;83;21071;-69
2021/12/12 07:46:44;;;;;;;8.98;6.83;;;;;;;6.76;100.00;99881.48;1731338;83;21079;-69
2021/12/12 07:49:10;;;;;;;7.17;6.05;;;;;;;6.73;100.00;99879.81;1731366;83;21485;-69
2021/12/12 07:51:39;;;;;;;6.97;5.67;;;;;;;6.70;100.00;99888.06;1731417;83;21481;-69
2021/12/12 07:54:07;;;;;;;8.80;6.87;;;;;;;6.66;100.00;99888.55;1731691;83;21793;-69
2021/12/12 07:56:36;;;;;;;9.28;8.33;;;;;;;6.65;100.00;99888.14;1731531;83;20933;-69
2021/12/12 07:59:03;;;;;;;11.43;7.50;;;;;;;6.64;100.00;99887.72;1726181;82;21137;-69
2021/12/12 08:01:30;;;;;;;9.35;7.90;;;;;;;6.67;100.00;99887.67;1721510;83;21014;-69
2021/12/12 08:03:57;;;;;;;11.38;10.08;;;;;;;6.68;100.00;99888.09;1721447;83;21094;-70
2021/12/12 08:06:24;;;;;;;11.65;9.33;;;;;;;6.71;100.00;99894.50;1721652;83;21473;-70
2021/12/12 08:08:52;;;;;;;9.00;7.85;;;;;;;6.74;100.00;99886.69;1721546;83;21074;-70
2021/12/12 08:11:23;;;;;;;6.50;5.90;;;;;;;6.73;100.00;99886.71;1721423;82;21007;-70
2021/12/12 08:13:50;;;;;;;8.28;7.37;;;;;;;6.74;99.72;99884.10;1721462;83;20975;-70
2021/12/12 08:16:18;;;;;;;11.18;9.78;;;;;;;6.69;99.68;99885.06;1721473;83;21562;-70
2021/12/12 08:18:44;;;;;;;9.50;8.45;;;;;;;6.67;99.53;99879.06;1721675;83;21501;-70
2021/12/12 08:21:11;;;;;;;11.48;8.60;;;;;;;6.63;99.39;99885.17;1721602;83;20955;-70
2021/12/12 08:23:37;;;;;;;11.33;9.30;;;;;;;6.57;99.69;99893.91;1721411;83;20995;-70
2021/12/12 08:26:05;;;;;;;13.35;9.95;;;;;;;6.53;99.74;99892.25;1721543;83;21562;-70
2021/12/12 08:28:33;;;;;;;12.75;10.65;;;;;;;6.50;100.00;99883.27;1696558;83;21019;-70
2021/12/12 08:31:03;;;;;;;12.78;11.00;;;;;;;6.48;100.00;99887.60;1721436;83;21796;-70
2021/12/12 08:33:36;;;;;;;11.03;9.40;;;;;;;6.42;100.00;99889.00;1721242;83;21004;-70
2021/12/12 08:36:03;;;;;;;11.03;9.40;;;;;;;6.39;100.00;99880.03;1721500;83;21035;-70
2021/12/12 08:38:30;;;;;;;13.72;11.53;;;;;;;6.40;100.00;99885.58;1721730;83;21015;-69
2021/12/12 08:41:00;;;;;;;12.37;10.72;;;;;;;6.39;100.00;99883.47;1721420;83;20987;-70
2021/12/12 08:43:27;;;;;;;13.45;11.00;;;;;;;6.39;100.00;99881.33;1721698;83;21074;-70
2021/12/12 08:46:04;;;;;;;13.93;9.73;;;;;;;6.41;99.97;99870.06;1721609;82;21106;-71
2021/12/12 08:48:33;;;;;;;12.37;10.80;;;;;;;6.46;99.48;99873.42;1721461;83;21573;-70
2021/12/12 08:51:04;;;;;;;14.70;11.08;;;;;;;6.50;99.26;99876.36;1721421;83;21043;-70
2021/12/12 08:53:31;;;;;;;13.10;11.05;;;;;;;6.54;98.36;99870.70;1721511;82;20987;-70
2021/12/12 08:55:58;;;;;;;12.78;10.70;;;;;;;6.49;98.03;99870.78;1721427;83;21109;-70
2021/12/12 08:58:29;;;;;;;12.82;10.15;;;;;;;6.50;98.04;99860.01;1721194;83;21003;-71
2021/12/12 09:01:12;;;;;;;12.25;10.05;;;;;;;6.52;97.80;99852.64;1721814;83;33683;-70
2021/12/12 09:03:58;;;;;;;25.32;18.37;;;;;;;6.51;97.59;99861.71;1721638;83;20971;-69
2021/12/12 09:06:29;;;;;;;16.77;13.58;;;;;;;6.46;97.82;99859.20;1721534;83;21101;-70
2021/12/12 09:09:20;;;;;;;13.70;11.63;;;;;;;6.48;98.05;99859.18;1721482;83;21003;-70
2021/12/12 09:12:10;;;;;;;11.95;10.68;;;;;;;6.47;98.10;99862.64;1721688;83;21113;-69
2021/12/12 09:14:54;;;;;;;13.90;11.57;;;;;;;6.45;98.03;99859.23;1721417;83;21030;-69
2021/12/12 09:17:26;;;;;;;15.20;12.15;;;;;;;6.43;98.00;99850.22;1696570;83;21023;-69
2021/12/12 09:20:15;;;;;;;14.50;11.70;;;;;;;6.43;97.85;99843.76;1721407;83;20939;-69
2021/12/12 09:22:54;;;;;;;13.65;11.73;;;;;;;6.42;97.90;99835.59;1721317;82;21340;-69
2021/12/12 09:25:24;;;;;;;12.88;11.50;;;;;;;6.46;97.95;99841.13;1720169;83;21558;-69
2021/12/12 09:28:27;;;;;;;15.00;11.30;;;;;;;6.47;97.90;99841.53;1697560;83;21023;-70
2021/12/12 09:31:06;;;;;;;13.03;10.85;;;;;;;6.51;97.75;99835.88;1689790;84;20986;-69
2021/12/12 09:33:38;;;;;;;11.43;9.53;;;;;;;6.49;97.49;99831.17;1696829;84;21465;-69
2021/12/12 09:36:10;;;;;;;15.75;10.75;;;;;;;6.49;97.74;99829.88;1696791;84;21807;-69
2021/12/12 09:38:49;;;;;;;15.45;11.45;;;;;;;6.54;97.73;99825.48;1702482;83;21063;-69
2021/12/12 09:41:47;;;;;;;12.88;10.53;;;;;;;6.57;97.60;99825.42;1721409;83;21526;-69
2021/12/12 09:44:31;;;;;;;14.03;10.50;;;;;;;6.56;96.97;99819.84;1721655;83;21027;-69
2021/12/12 09:47:45;;;;;;;13.28;10.28;;;;;;;6.53;96.80;99819.46;1710693;83;20998;-69
2021/12/12 09:53:31;;;;;;;12.25;10.85;;;;;;;6.49;96.88;99826.86;1681970;83;21511;-70
2021/12/12 09:56:08;;;;;;;12.35;10.15;;;;;;;6.44;96.76;99824.80;1721586;83;21088;-70
2021/12/12 09:58:50;;;;;;;12.28;9.93;;;;;;;6.42;96.86;99824.41;1721235;82;21140;-72
2021/12/12 10:01:30;;;;;;;11.33;9.33;;;;;;;6.44;97.26;99823.50;1694235;82;21062;-71
2021/12/12 10:04:30;;;;;;;10.28;9.20;;;;;;;6.48;97.21;99825.59;1721031;83;21725;-70
2021/12/12 10:07:30;;;;;;;10.15;9.10;;;;;;;6.51;96.85;99824.24;1721308;83;21063;-69
2021/12/12 10:10:03;;;;;;;10.93;9.05;;;;;;;6.45;96.36;99829.52;1721371;83;21510;-70
2021/12/12 10:12:39;;;;;;;9.98;7.62;;;;;;;6.34;96.48;99815.53;1721376;83;20995;-70
2021/12/12 10:15:11;;;;;;;9.78;8.23;;;;;;;6.29;96.94;99821.21;1721257;83;21043;-70
2021/12/12 10:17:43;;;;;;;9.23;8.30;;;;;;;6.30;96.80;99819.48;1721877;83;21776;-70
2021/12/12 10:20:20;;;;;;;7.70;6.72;;;;;;;6.30;96.84;99817.75;1721662;83;21753;-70
2021/12/12 10:23:29;;;;;;;7.17;6.30;;;;;;;6.32;96.12;99809.97;1721400;83;21447;-69
2021/12/12 10:26:25;;;;;;;7.17;5.97;;;;;;;6.34;95.71;99800.47;1721447;83;21071;-69
2021/12/12 10:29:00;;;;;;;7.30;6.30;;;;;;;6.38;95.32;99789.20;1721608;83;21022;-69
2021/12/12 10:31:53;;;;;;;8.60;6.70;;;;;;;6.39;94.63;99794.78;1721545;83;21130;-69
2021/12/12 10:34:34;;;;;;;8.28;7.40;;;;;;;6.34;95.15;99811.66;1721557;83;21440;-69
2021/12/12 10:37:26;;;;;;;13.62;12.23;;;;;;;6.33;95.23;99807.80;1721618;83;21023;-69
2021/12/12 10:40:10;;;;;;;8.73;7.03;;;;;;;6.34;95.43;99823.28;1721643;83;20994;-69
2021/12/12 10:42:48;;;;;;;;;;;;;;;6.31;95.34;99818.60;1724104;83;21522;-70
2021/12/12 10:45:27;;;;;;;8.13;6.78;;;;;;;6.24;95.77;99810.11;1721246;83;21106;-69
2021/12/12 10:47:58;;;;;;;11.40;8.88;;;;;;;6.19;95.99;99810.66;1720865;83;20963;-69
2021/12/12 10:50:43;;;;;;;8.53;7.15;;;;;;;6.13;96.09;99791.39;1721816;83;21058;-69
2021/12/12 10:53:21;;;;;;;6.55;5.70;;;;;;;6.06;95.55;99782.89;1721611;83;20996;-70
2021/12/12 10:56:04;;;;;;;7.22;5.58;;;;;;;6.00;95.43;99765.36;1721602;83;21063;-70
2021/12/12 10:58:43;;;;;;;9.05;6.85;;;;;;;6.00;95.61;99786.01;1721545;82;21961;-72
2021/12/12 11:01:23;;;;;;;8.33;7.22;;;;;;;5.99;95.58;99785.19;1721330;83;21489;-70
2021/12/12 11:03:57;;;;;;;8.48;7.45;;;;;;;6.01;95.87;99793.73;1720974;83;21023;-71
2021/12/12 11:06:52;;;;;;;8.38;5.83;;;;;;;6.04;96.04;99797.99;1720855;83;21058;-70
2021/12/12 11:09:53;;;;;;;9.98;6.60;;;;;;;6.05;96.05;99786.78;1721563;83;20983;-70
2021/12/12 11:12:27;;;;;;;7.97;6.65;;;;;;;6.06;96.18;99784.62;1721331;83;21797;-70
2021/12/12 11:15:14;;;;;;;7.45;6.60;;;;;;;6.04;96.25;99783.35;1721475;83;21035;-70
2021/12/12 11:17:45;;;;;;;7.40;6.70;;;;;;;6.06;96.49;99794.95;1721596;83;20987;-69
2021/12/12 11:20:24;;;;;;;7.50;6.03;;;;;;;6.10;96.58;99791.44;1721370;82;21003;-70
2021/12/12 11:23:01;;;;;;;7.50;6.80;;;;;;;6.16;96.10;99801.22;1721579;83;20959;-69
2021/12/12 11:25:42;;;;;;;7.17;6.47;;;;;;;6.11;95.91;99795.28;1721435;83;21059;-69
2021/12/12 11:28:13;;;;;;;7.08;5.78;;;;;;;6.08;95.97;99794.05;1721524;83;21527;-70
2021/12/12 11:30:52;;;;;;;7.30;5.40;;;;;;;6.07;95.79;99796.21;1721581;83;20975;-69
2021/12/12 11:33:19;;;;;;;7.17;5.10;;;;;;;6.05;95.42;99799.26;1721475;82;21504;-69
2021/12/12 11:35:48;;;;;;;5.22;4.72;;;;;;;6.02;95.26;99781.67;1721438;83;21014;-69
2021/12/12 11:38:43;;;;;;;7.85;5.62;;;;;;;5.98;94.96;99786.06;1721419;83;21102;-69
2021/12/12 11:41:23;;;;;;;7.28;5.25;;;;;;;5.91;95.26;99789.63;1721321;83;20976;-69
2021/12/12 11:44:07;;;;;;;5.60;4.80;;;;;;;5.91;95.40;99783.17;1721253;83;20987;-70
2021/12/12 11:46:38;;;;;;;5.78;4.97;;;;;;;5.88;95.32;99778.91;1721563;83;21065;-70
2021/12/12 11:49:25;;;;;;;4.58;4.17;;;;;;;5.87;95.69;99789.23;1720778;83;21039;-71
2021/12/12 11:52:02;;;;;;;4.72;4.33;;;;;;;5.87;95.71;99790.08;1721484;83;21144;-69
2021/12/12 11:55:05;;;;;;;6.40;5.37;;;;;;;5.88;95.68;99784.07;1721462;83;21484;-71
2021/12/12 11:57:36;;;;;;;4.85;3.95;;;;;;;5.90;95.99;99775.02;1721913;83;20987;-69
2021/12/12 12:00:17;;;;;;;4.75;4.25;;;;;;;5.97;95.78;99774.47;1721207;82;21125;-69
2021/12/12 12:03:12;;;;;;;4.75;3.92;;;;;;;5.98;95.63;99773.16;1721880;83;20979;-71
2021/12/12 12:06:05;;;;;;;5.22;4.55;;;;;;;6.03;95.13;99766.59;1721615;83;21363;-71
2021/12/12 12:09:15;;;;;;;5.22;4.72;;;;;;;6.03;94.45;99762.28;1721453;83;21419;-69
2021/12/12 12:12:34;;;;;;;4.37;3.98;;;;;;;6.06;94.80;99766.11;1721430;82;20980;-70
2021/12/12 12:15:18;;;;;;;4.03;3.60;;;;;;;6.13;94.21;99777.19;1721564;83;21464;-69
2021/12/12 12:17:59;;;;;;;5.92;4.42;;;;;;;6.09;93.48;99769.07;1706227;83;21050;-69
2021/12/12 12:21:11;;;;;;;6.20;4.25;;;;;;;6.08;93.90;99765.64;1728525;82;21124;-70